Time;durP1;ratioP1;P1;durP2;ratioP2;P2;SDS_P1;SDS_P2;PMS_P1;PMS_P2;Temp;Humidity;BMP_temperature;BMP_pressure;BME280_temperature;BME280_humidity;BME280_pressure;Samples;Min_cycle;Max_cycle;Signal;HPM_P1;HPM_P2
2022/01/23 00:01:41;;;;;;;;;;;;;;;-3.52;82.47;99398.40;106309;1277;22762;-81
2022/01/23 00:04:07;;;;;;;;;;;;;;;-3.54;82.46;99398.52;106215;1277;22529;-81
2022/01/23 00:06:33;;;;;;;;;;;;;;;-3.54;82.06;99399.45;106276;1277;125213;-82
2022/01/23 00:09:02;;;;;;;;;;;;;;;-3.53;82.35;99399.52;106251;1277;22551;-81
2022/01/23 00:11:31;;;;;;;;;;;;;;;-3.53;82.21;99393.69;106180;1277;124547;-81
2022/01/23 00:19:09;;;;;;;;;;;;;;;-3.56;82.43;99395.22;106283;1277;124107;-81
2022/01/23 00:21:40;;;;;;;;;;;;;;;-3.60;82.01;99395.14;106088;1277;25533;-81
2022/01/23 00:32:05;;;;;;;;;;;;;;;-3.63;82.22;99399.98;106321;1277;22683;-81
2022/01/23 00:34:45;;;;;;;;;;;;;;;-3.63;82.46;99397.90;106415;1277;22534;-82
2022/01/23 00:37:11;;;;;;;;;;;;;;;-3.64;82.34;99397.48;105950;1280;124260;-82
2022/01/23 00:39:37;;;;;;;;;;;;;;;-3.67;82.19;99397.84;106216;1277;22689;-81
2022/01/23 00:42:04;;;;;;;;;;;;;;;-3.70;82.40;99393.85;106430;1277;124891;-80
2022/01/23 00:44:31;;;;;;;;;;;;;;;-3.69;82.51;99399.97;106168;1277;24435;-81
2022/01/23 00:47:15;;;;;;;;;;;;;;;-3.67;82.74;99400.92;105861;1279;124960;-81
2022/01/23 00:49:41;;;;;;;;;;;;;;;-3.68;82.22;99400.21;106319;1277;24274;-81
2022/01/23 00:52:07;;;;;;;;;;;;;;;-3.68;82.36;99405.38;106328;1279;25251;-80
2022/01/23 00:54:33;;;;;;;;;;;;;;;-3.68;82.35;99405.23;106233;1277;124084;-81
2022/01/23 00:57:00;;;;;;;;;;;;;;;-3.69;82.46;99404.13;106193;1277;22535;-82
2022/01/23 00:59:26;;;;;;;;;;;;;;;-3.72;82.42;99400.27;106225;1277;124689;-82
2022/01/23 01:01:52;;;;;;;;;;;;;;;-3.73;82.37;99400.70;106448;1277;22547;-82
2022/01/23 01:04:18;;;;;;;;;;;;;;;-3.71;82.09;99403.17;106062;1277;24334;-83
2022/01/23 01:06:44;;;;;;;;;;;;;;;-3.70;82.29;99400.45;106206;1277;124214;-83
2022/01/23 01:09:13;;;;;;;;;;;;;;;-3.70;82.31;99396.91;106268;1277;25474;-82
2022/01/23 01:14:27;;;;;;;;;;;;;;;-3.73;82.26;99393.60;106055;1277;23474;-81
2022/01/23 01:30:53;;;;;;;;;;;;;;;-3.77;82.18;99385.81;106852;1280;124131;-81
2022/01/23 01:33:31;;;;;;;;;;;;;;;-3.79;82.04;99387.88;105874;1277;22546;-82
2022/01/23 01:36:15;;;;;;;;;;;;;;;-3.79;82.44;99388.27;105907;1277;124176;-81
2022/01/23 01:38:41;;;;;;;;;;;;;;;-3.81;81.93;99386.47;105930;1277;25254;-82
2022/01/23 01:41:07;;;;;;;;;;;;;;;-3.81;82.19;99386.64;105984;1277;124975;-82
2022/01/23 01:43:36;;;;;;;;;;;;;;;-3.80;82.11;99390.82;106207;1277;25325;-84
2022/01/23 01:46:03;;;;;;;;;;;;;;;-3.80;82.24;99391.71;106179;1277;25313;-84
2022/01/23 01:48:40;;;;;;;;;;;;;;;-3.82;82.05;99399.13;106329;1277;124629;-82
2022/01/23 01:51:14;;;;;;;;;;;;;;;-3.83;82.19;99397.66;106367;1277;25733;-81
2022/01/23 01:54:03;;;;;;;;;;;;;;;-3.86;82.34;99396.99;105968;1280;124737;-81
2022/01/23 01:56:38;;;;;;;;;;;;;;;-3.89;82.07;99395.65;106019;1277;24260;-81
2022/01/23 02:10:29;;;;;;;;;;;;;;;-3.95;82.09;99400.79;105530;1277;26625;-81
2022/01/23 02:13:11;;;;;;;;;;;;;;;-3.98;81.63;99399.27;105772;1280;124643;-81
2022/01/23 03:00:18;;;;;;;;;;;;;;;-4.06;81.80;99412.17;105780;1277;124536;-81
2022/01/23 03:03:12;;;;;;;;;;;;;;;-4.08;82.29;99415.84;105992;1277;26595;-80
2022/01/23 03:06:19;;;;;;;;;;;;;;;-4.09;82.29;99425.21;105666;1277;124424;-81
2022/01/23 03:09:23;;;;;;;;;;;;;;;-4.09;82.34;99424.31;106104;1277;22552;-81
2022/01/23 03:28:26;;;;;;;;;;;;;;;-4.02;82.42;99429.52;105999;1277;24272;-82
2022/01/23 03:31:04;;;;;;;;;;;;;;;-3.99;82.23;99423.98;105920;1277;124531;-81
2022/01/23 03:33:31;;;;;;;;;;;;;;;-3.95;82.35;99427.36;106098;1277;24331;-81
2022/01/23 03:35:58;;;;;;;;;;;;;;;-3.94;82.14;99427.99;105799;1277;124208;-81
2022/01/23 03:38:24;;;;;;;;;;;;;;;-3.95;82.50;99432.33;105999;1277;24228;-81
2022/01/23 03:40:50;;;;;;;;;;;;;;;-3.96;82.28;99432.27;106016;1277;22658;-81
2022/01/23 03:43:22;;;;;;;;;;;;;;;-3.96;82.50;99427.65;105913;1277;124660;-81
2022/01/23 03:51:13;;;;;;;;;;;;;;;-3.89;82.52;99417.27;105922;1277;23738;-80
2022/01/23 03:53:45;;;;;;;;;;;;;;;-3.88;82.31;99420.79;106073;1277;124669;-81
2022/01/23 03:56:11;;;;;;;;;;;;;;;-3.91;82.41;99419.95;105929;1278;25487;-81
2022/01/23 03:58:39;;;;;;;;;;;;;;;-3.94;82.34;99415.73;105894;1277;24915;-80
2022/01/23 04:01:08;;;;;;;;;;;;;;;-3.96;82.78;99419.86;106105;1277;125060;-81
2022/01/23 04:03:37;;;;;;;;;;;;;;;-3.99;82.43;99421.34;106117;1280;25313;-83
2022/01/23 04:06:03;;;;;;;;;;;;;;;-4.02;82.26;99426.39;105930;1277;124436;-82
2022/01/23 04:08:30;;;;;;;;;;;;;;;-4.06;82.79;99425.58;105978;1277;22778;-83
2022/01/23 04:10:56;;;;;;;;;;;;;;;-4.08;82.65;99428.44;106320;1280;22700;-81
2022/01/23 04:13:29;;;;;;;;;;;;;;;-4.08;82.77;99429.37;106085;1280;124906;-81
2022/01/23 04:16:33;;;;;;;;;;;;;;;-4.08;82.41;99431.97;106417;1277;23052;-81
2022/01/23 04:35:45;;;;;;;;;;;;;;;-4.12;82.93;99460.73;106232;1280;25336;-81
2022/01/23 04:46:19;;;;;;;;;;;;;;;-4.18;82.84;99461.70;106374;1277;22552;-82
2022/01/23 04:59:30;;;;;;;;;;;;;;;-4.20;83.13;99469.67;106233;1277;125506;-82
2022/01/23 04:59:54;;;;;;;;;;;;;;;-4.20;82.82;99472.84;106136;1277;124662;-81
2022/01/23 05:05:07;;;;;;;;;;;;;;;-4.22;83.21;99474.48;106108;1277;23956;-81
2022/01/23 05:07:52;;;;;;;;;;;;;;;-4.25;83.00;99467.41;106128;1278;124117;-82
2022/01/23 05:10:39;;;;;;;;;;;;;;;-4.27;82.83;99466.16;106217;1277;24305;-81
2022/01/23 05:13:31;;;;;;;;;;;;;;;-4.27;83.10;99470.60;105966;1277;124887;-81
2022/01/23 05:15:57;;;;;;;;;;;;;;;-4.26;82.65;99474.92;106392;1277;22613;-81
2022/01/23 05:18:24;;;;;;;;;;;;;;;-4.25;82.93;99487.08;106253;1277;124621;-81
2022/01/23 05:21:01;;;;;;;;;;;;;;;-4.25;82.86;99492.77;106340;1278;23178;-80
2022/01/23 05:23:28;;;;;;;;;;;;;;;-4.26;82.74;99492.89;106315;1277;22556;-81
2022/01/23 05:25:54;;;;;;;;;;;;;;;-4.27;83.11;99488.38;105950;1277;123935;-81
2022/01/23 05:28:22;;;;;;;;;;;;;;;-4.29;82.89;99489.71;106323;1278;22690;-80
2022/01/23 05:30:48;;;;;;;;;;;;;;;-4.29;82.80;99493.87;106150;1281;125355;-81
2022/01/23 05:33:14;;;;;;;;;;;;;;;-4.32;82.76;99494.21;106339;1277;22547;-81
2022/01/23 05:35:41;;;;;;;;;;;;;;;-4.33;83.02;99495.62;106172;1277;124529;-81
2022/01/23 05:38:08;;;;;;;;;;;;;;;-4.34;82.93;99499.95;106338;1278;25343;-81
2022/01/23 05:40:34;;;;;;;;;;;;;;;-4.35;83.00;99499.98;106342;1280;22541;-81
2022/01/23 05:43:01;;;;;;;;;;;;;;;-4.34;82.74;99498.10;106020;1278;124663;-81
2022/01/23 05:45:28;;;;;;;;;;;;;;;-4.32;82.81;99494.22;106079;1278;22533;-81
2022/01/23 05:48:06;;;;;;;;;;;;;;;-4.29;82.97;99492.05;106164;1278;124133;-81
2022/01/23 05:50:51;;;;;;;;;;;;;;;-4.28;82.93;99495.84;106184;1278;22684;-81
2022/01/23 05:53:36;;;;;;;;;;;;;;;-4.27;82.90;99498.94;106297;1277;124135;-81
2022/01/23 05:56:21;;;;;;;;;;;;;;;-4.28;82.60;99491.98;106329;1277;23237;-81
2022/01/23 05:59:21;;;;;;;;;;;;;;;-4.30;82.70;99497.31;105879;1278;22555;-83
2022/01/23 06:01:51;;;;;;;;;;;;;;;-4.32;82.71;99494.94;106161;1277;125037;-81
2022/01/23 06:04:19;;;;;;;;;;;;;;;-4.30;82.60;99493.77;106285;1278;22625;-81
2022/01/23 06:07:05;;;;;;;;;;;;;;;-4.28;83.23;99491.73;106045;1278;124892;-81
2022/01/23 06:09:36;;;;;;;;;;;;;;;-4.24;82.85;99487.89;106312;1280;22769;-82
2022/01/23 06:12:02;;;;;;;;;;;;;;;-4.19;83.08;99485.60;105989;1277;124524;-81
2022/01/23 06:14:29;;;;;;;;;;;;;;;-4.15;83.01;99487.94;106284;1278;22680;-81
2022/01/23 06:16:55;;;;;;;;;;;;;;;-4.13;83.07;99499.44;106116;1277;25310;-81
2022/01/23 06:19:47;;;;;;;;;;;;;;;-4.12;82.97;99501.84;106132;1277;124174;-81
2022/01/23 06:22:32;;;;;;;;;;;;;;;-4.11;83.11;99492.02;106390;1277;25244;-81
2022/01/23 06:25:17;;;;;;;;;;;;;;;-4.11;82.78;99497.13;106172;1277;124645;-81
2022/01/23 06:28:06;;;;;;;;;;;;;;;-4.11;82.53;99500.35;106443;1277;22536;-81
2022/01/23 06:30:33;;;;;;;;;;;;;;;-4.08;82.65;99506.80;106282;1277;125198;-82
2022/01/23 06:32:59;;;;;;;;;;;;;;;-4.04;82.67;99512.18;106096;1278;25226;-82
2022/01/23 06:35:26;;;;;;;;;;;;;;;-4.01;82.84;99515.98;106273;1278;25253;-83
2022/01/23 06:37:52;;;;;;;;;;;;;;;-3.99;83.11;99518.66;106263;1277;123875;-82
2022/01/23 06:40:18;;;;;;;;;;;;;;;-3.98;82.76;99524.27;106346;1277;23214;-82
2022/01/23 06:43:03;;;;;;;;;;;;;;;-3.97;82.84;99535.54;106303;1277;124197;-83
2022/01/23 06:45:42;;;;;;;;;;;;;;;-3.96;82.73;99539.90;106478;1278;25297;-82
2022/01/23 06:48:08;;;;;;;;;;;;;;;-3.95;82.45;99539.45;106155;1281;124409;-84
2022/01/23 06:50:35;;;;;;;;;;;;;;;-3.94;82.78;99540.81;106116;1281;23386;-84
2022/01/23 06:53:01;;;;;;;;;;;;;;;-3.91;82.84;99543.95;106182;1278;24600;-84
2022/01/23 06:55:27;;;;;;;;;;;;;;;-3.85;82.88;99543.10;106142;1278;124926;-82
2022/01/23 06:57:56;;;;;;;;;;;;;;;-3.77;82.73;99543.36;106307;1277;22692;-82
2022/01/23 07:00:23;;;;;;;;;;;;;;;-3.70;82.92;99553.95;106052;1281;124087;-84
2022/01/23 07:03:07;;;;;;;;;;;;;;;-3.63;82.80;99559.94;106363;1278;24342;-82
2022/01/23 07:05:54;;;;;;;;;;;;;;;-3.60;82.26;99564.80;106357;1278;124267;-82
2022/01/23 07:08:29;;;;;;;;;;;;;;;-3.59;82.68;99567.56;106317;1277;25341;-82
2022/01/23 07:11:14;;;;;;;;;;;;;;;-3.57;82.28;99570.44;106358;1277;22560;-82
2022/01/23 07:13:49;;;;;;;;;;;;;;;-3.56;81.85;99574.27;106434;1277;124481;-82
2022/01/23 07:16:34;;;;;;;;;;;;;;;-3.53;82.03;99576.70;106416;1277;29694;-83
2022/01/23 07:19:26;;;;;;;;;;;;;;;-3.48;81.81;99585.48;106089;1277;124896;-82
2022/01/23 07:22:00;;;;;;;;;;;;;;;-3.41;81.70;99590.39;106337;1279;22694;-82
2022/01/23 07:24:27;;;;;;;;;;;;;;;-3.37;81.75;99596.29;106413;1281;124099;-83
2022/01/23 07:26:53;;;;;;;;;;;;;;;-3.33;81.61;99601.50;106440;1280;24294;-82
2022/01/23 07:29:19;;;;;;;;;;;;;;;-3.32;81.45;99605.64;106284;1278;22545;-82
2022/01/23 07:34:31;;;;;;;;;;;;;;;-3.32;81.07;99609.34;106361;1281;22563;-82
2022/01/23 07:37:00;;;;;;;;;;;;;;;-3.30;81.18;99612.36;106335;1277;124666;-83
2022/01/23 07:39:38;;;;;;;;;;;;;;;-3.28;81.11;99615.23;106294;1277;25282;-84
2022/01/23 07:42:09;;;;;;;;;;;;;;;-3.22;80.98;99619.21;106446;1277;124966;-82
2022/01/23 07:44:54;;;;;;;;;;;;;;;-3.15;81.07;99618.64;106269;1278;25493;-82
2022/01/23 07:47:43;;;;;;;;;;;;;;;-3.10;81.16;99619.45;105934;1277;124683;-82
2022/01/23 07:50:28;;;;;;;;;;;;;;;-3.05;80.92;99622.36;106176;1277;22563;-82
2022/01/23 07:53:04;;;;;;;;;;;;;;;-2.97;80.68;99625.48;106278;1277;23384;-82
2022/01/23 07:55:53;;;;;;;;;;;;;;;-2.90;80.60;99626.05;106096;1278;124731;-82
2022/01/23 07:58:38;;;;;;;;;;;;;;;-2.82;80.52;99633.65;106580;1277;22542;-82
2022/01/23 08:01:08;;;;;;;;;;;;;;;-2.76;80.57;99633.97;106089;1277;125211;-82
2022/01/23 08:03:42;;;;;;;;;;;;;;;-2.73;80.45;99639.95;106375;1278;22712;-82
2022/01/23 08:06:12;;;;;;;;;;;;;;;-2.71;79.73;99649.55;106041;1277;125247;-81
2022/01/23 08:08:41;;;;;;;;;;;;;;;-2.72;79.72;99652.88;106370;1277;22529;-83
2022/01/23 08:11:11;;;;;;;;;;;;;;;-2.71;79.91;99653.27;106474;1277;25264;-82
2022/01/23 08:13:38;;;;;;;;;;;;;;;-2.65;79.96;99654.36;106314;1277;124271;-82
2022/01/23 08:16:04;;;;;;;;;;;;;;;-2.59;79.60;99659.55;106228;1277;25525;-82
2022/01/23 08:18:30;;;;;;;;;;;;;;;-2.53;79.36;99660.83;106081;1277;124911;-82
2022/01/23 08:20:56;;;;;;;;;;;;;;;-2.48;79.04;99666.42;106067;1277;25354;-81
2022/01/23 08:23:22;;;;;;;;;;;;;;;-2.43;79.13;99660.18;106263;1277;23223;-82
2022/01/23 08:25:48;;;;;;;;;;;;;;;-2.34;79.13;99667.04;106527;1277;124108;-82
2022/01/23 08:28:15;;;;;;;;;;;;;;;-2.28;78.82;99671.16;106954;1277;23367;-82
2022/01/23 08:30:41;;;;;;;;;;;;;;;-2.22;79.07;99681.79;106401;1277;123868;-82
2022/01/23 08:33:07;;;;;;;;;;;;;;;-2.16;78.93;99683.08;106653;1277;22545;-82
2022/01/23 08:35:33;;;;;;;;;;;;;;;-2.11;78.80;99683.69;106211;1277;22556;-82
2022/01/23 08:37:59;;;;;;;;;;;;;;;-2.03;78.62;99683.39;106185;1277;126763;-82
2022/01/23 08:40:47;;;;;;;;;;;;;;;-1.99;78.45;99681.73;106269;1277;22532;-82
2022/01/23 08:43:15;;;;;;;;;;;;;;;-1.95;78.03;99679.15;106204;1277;124039;-83
2022/01/23 08:45:42;;;;;;;;;;;;;;;-1.92;78.22;99687.20;106473;1278;25370;-82
2022/01/23 08:48:08;;;;;;;;;;;;;;;-1.89;77.92;99685.75;105773;1280;124813;-82
2022/01/23 08:50:35;;;;;;;;;;;;;;;-1.88;77.82;99688.29;105906;1277;25373;-82
2022/01/23 08:53:01;;;;;;;;;;;;;;;-1.85;77.82;99685.54;105665;1278;23127;-81
2022/01/23 08:55:27;;;;;;;;;;;;;;;-1.81;77.83;99689.68;105999;1280;125049;-84
2022/01/23 08:57:54;;;;;;;;;;;;;;;-1.74;79.20;99696.73;106317;1277;22732;-82
2022/01/23 09:00:21;;;;;;;;;;;;;;;-1.55;78.69;99696.77;107328;1277;125510;-84
2022/01/23 09:02:47;;;;;;;;;;;;;;;-1.43;77.80;99699.83;106970;1277;22668;-83
2022/01/23 09:05:13;;;;;;;;;;;;;;;-1.33;77.57;99702.84;106631;1276;22685;-83
2022/01/23 09:07:39;;;;;;;;;;;;;;;-1.22;77.19;99704.90;106515;1277;124158;-82
2022/01/23 09:10:06;;;;;;;;;;;;;;;-1.15;76.69;99709.80;106206;1277;22554;-83
2022/01/23 09:15:05;;;;;;;;;;;;;;;-1.08;76.43;99703.81;106380;1278;22556;-83
2022/01/23 09:17:31;;;;;;;;;;;;;;;-1.00;76.25;99704.65;106332;1277;22551;-83
2022/01/23 09:19:57;;;;;;;;;;;;;;;-0.92;76.02;99703.98;105970;1277;123858;-82
2022/01/23 09:22:27;;;;;;;;;;;;;;;-0.86;75.63;99696.32;105987;1277;22677;-83
2022/01/23 09:24:53;;;;;;;;;;;;;;;-0.79;75.31;99701.83;105780;1278;124224;-82
2022/01/23 09:27:19;;;;;;;;;;;;;;;-0.72;75.62;99698.78;106372;1277;25496;-83
2022/01/23 09:29:48;;;;;;;;;;;;;;;-0.63;75.17;99695.96;106224;1277;124207;-83
2022/01/23 09:32:15;;;;;;;;;;;;;;;-0.56;75.05;99692.83;106339;1277;22785;-83
2022/01/23 09:34:43;;;;;;;;;;;;;;;-0.50;74.48;99692.20;106072;1277;24225;-84
2022/01/23 09:37:11;;;;;;;;;;;;;;;-0.43;74.59;99689.60;105623;1278;124050;-83
2022/01/23 09:39:38;;;;;;;;;;;;;;;-0.35;74.15;99694.66;106236;1277;22691;-84
2022/01/23 09:42:23;;;;;;;;;;;;;;;-0.28;73.96;99695.90;105789;1280;124211;-83
2022/01/23 09:44:51;;;;;;;;;;;;;;;-0.21;73.73;99694.87;105856;1277;22600;-84
2022/01/23 09:47:19;;;;;;;;;;;;;;;-0.14;73.38;99699.98;105636;1277;242872;-83
2022/01/23 09:49:47;;;;;;;;;;;;;;;-0.08;73.20;99701.14;105801;1277;124802;-82
2022/01/23 09:52:14;;;;;;;;;;;;;;;-0.07;72.24;99708.55;105878;1277;22666;-83
2022/01/23 09:54:41;;;;;;;;;;;;;;;-0.09;71.85;99703.35;105919;1277;124097;-82
2022/01/23 09:57:09;;;;;;;;;;;;;;;-0.12;71.09;99700.30;105898;1277;22550;-81
2022/01/23 09:59:35;;;;;;;;;;;;;;;-0.07;71.18;99700.91;106042;1277;24323;-82
2022/01/23 10:02:03;;;;;;;;;;;;;;;0.02;70.49;99701.11;105846;1277;124231;-83
2022/01/23 10:04:30;;;;;;;;;;;;;;;0.06;70.47;99694.63;106255;1277;25535;-84
2022/01/23 10:06:56;;;;;;;;;;;;;;;0.13;69.86;99699.30;105778;1278;124014;-83
2022/01/23 10:09:24;;;;;;;;;;;;;;;0.09;69.00;99698.29;106082;1277;24285;-85
2022/01/23 10:11:51;;;;;;;;;;;;;;;0.06;68.51;99701.80;107016;1277;123981;-83
2022/01/23 10:14:18;;;;;;;;;;;;;;;-0.03;68.41;99702.26;106576;1277;22552;-83
2022/01/23 10:16:47;;;;;;;;;;;;;;;-0.13;68.53;99695.23;106411;1277;23926;-83
2022/01/23 10:19:15;;;;;;;;;;;;;;;-0.21;68.71;99696.30;106642;1277;124139;-83
2022/01/23 10:21:43;;;;;;;;;;;;;;;-0.30;68.91;99693.36;106557;1277;22978;-83
2022/01/23 10:24:10;;;;;;;;;;;;;;;-0.40;68.89;99693.60;106909;1277;124554;-83
2022/01/23 10:26:46;;;;;;;;;;;;;;;-0.43;69.44;99698.38;106961;1277;25256;-82
2022/01/23 10:29:13;;;;;;;;;;;;;;;-0.35;70.21;99702.94;106473;1277;22561;-83
2022/01/23 10:31:58;;;;;;;;;;;;;;;-0.31;69.68;99698.20;106224;1277;124618;-82
2022/01/23 10:34:45;;;;;;;;;;;;;;;-0.31;69.30;99705.60;107694;1277;22598;-83
2022/01/23 10:37:22;;;;;;;;;;;;;;;-0.38;69.02;99699.52;106524;1277;124095;-85
2022/01/23 10:39:49;;;;;;;;;;;;;;;-0.38;70.03;99702.55;107402;1277;22585;-83
2022/01/23 10:50:44;;;;;;;;;;;;;;;-0.26;69.98;99693.76;107113;1277;22592;-83
2022/01/23 10:53:11;;;;;;;;;;;;;;;-0.26;69.41;99698.05;107102;1277;24226;-82
2022/01/23 10:55:37;;;;;;;;;;;;;;;-0.29;69.31;99696.13;107055;1277;125394;-82
2022/01/23 10:58:06;;;;;;;;;;;;;;;-0.24;69.73;99695.10;107805;1277;22689;-83
2022/01/23 11:00:37;;;;;;;;;;;;;;;-0.19;69.56;99692.85;106524;1277;123923;-83
2022/01/23 11:03:22;;;;;;;;;;;;;;;-0.13;69.74;99690.57;106127;1277;25420;-83
2022/01/23 11:05:49;;;;;;;;;;;;;;;-0.07;69.94;99687.50;106084;1277;124455;-84
2022/01/23 11:08:18;;;;;;;;;;;;;;;-0.03;69.78;99684.45;106110;1280;22898;-83
2022/01/23 11:10:57;;;;;;;;;;;;;;;0.03;69.68;99680.33;106603;1278;22556;-84
2022/01/23 11:19:23;;;;;;;;;;;;;;;0.03;68.78;99681.58;106016;1277;125129;-82
2022/01/23 11:21:52;;;;;;;;;;;;;;;0.02;69.15;99681.27;106034;1280;22714;-83
2022/01/23 11:24:19;;;;;;;;;;;;;;;0.05;69.24;99683.69;106248;1277;124623;-83
2022/01/23 11:26:46;;;;;;;;;;;;;;;0.17;69.39;99685.71;106220;1277;24282;-83
2022/01/23 11:29:17;;;;;;;;;;;;;;;0.27;68.77;99683.52;105902;1277;23960;-85
2022/01/23 11:31:44;;;;;;;;;;;;;;;0.30;69.04;99685.56;106524;1277;123898;-85
2022/01/23 11:34:14;;;;;;;;;;;;;;;0.33;68.70;99686.45;106335;1277;25636;-85
2022/01/23 11:36:41;;;;;;;;;;;;;;;0.35;67.88;99689.35;106132;1277;124545;-83
2022/01/23 11:39:28;;;;;;;;;;;;;;;0.29;67.93;99694.41;106280;1277;25359;-83
2022/01/23 11:56:36;;;;;;;;;;;;;;;0.03;68.59;99702.24;105991;1277;123750;-83
2022/01/23 11:59:30;;;;;;;;;;;;;;;-0.02;68.68;99707.86;106043;1277;22695;-83
2022/01/23 12:02:23;;;;;;;;;;;;;;;0.05;68.62;99706.91;106070;1277;124530;-84
2022/01/23 12:05:25;;;;;;;;;;;;;;;0.18;69.18;99709.03;106480;1277;24351;-84
2022/01/23 12:08:11;;;;;;;;;;;;;;;0.29;68.33;99710.98;105323;1283;123940;-83
2022/01/23 12:10:52;;;;;;;;;;;;;;;0.39;68.74;99711.14;105620;1277;24333;-84
2022/01/23 12:18:49;;;;;;;;;;;;;;;0.41;68.21;99712.54;105946;1277;124180;-81
2022/01/23 12:21:34;;;;;;;;;;;;;;;0.39;68.19;99713.82;106505;1277;24269;-84
2022/01/23 12:24:01;;;;;;;;;;;;;;;0.33;68.23;99712.55;105982;1277;124259;-83
2022/01/23 12:26:28;;;;;;;;;;;;;;;0.28;68.41;99712.84;106346;1277;23355;-83
2022/01/23 12:28:54;;;;;;;;;;;;;;;0.27;68.70;99709.64;106101;1277;23837;-83
2022/01/23 12:31:23;;;;;;;;;;;;;;;0.24;68.36;99714.06;105862;1277;124809;-83
2022/01/23 12:33:56;;;;;;;;;;;;;;;0.18;68.53;99709.00;106050;1277;22485;-83
2022/01/23 12:36:24;;;;;;;;;;;;;;;0.18;68.95;99709.73;105914;1277;125696;-83
2022/01/23 12:38:53;;;;;;;;;;;;;;;0.20;68.97;99710.27;106104;1277;24274;-83
2022/01/23 12:41:23;;;;;;;;;;;;;;;0.20;68.84;99714.05;106286;1277;22541;-83
2022/01/23 12:43:50;;;;;;;;;;;;;;;0.21;69.20;99715.16;105924;1277;123747;-83
2022/01/23 12:46:35;;;;;;;;;;;;;;;0.20;69.14;99719.39;106094;1277;22648;-83
2022/01/23 12:49:21;;;;;;;;;;;;;;;0.11;69.01;99723.66;106083;1277;124703;-84
2022/01/23 12:51:48;;;;;;;;;;;;;;;0.01;69.32;99727.02;106214;1277;25255;-83
2022/01/23 12:54:16;;;;;;;;;;;;;;;-0.04;69.63;99731.05;105962;1277;124638;-84
2022/01/23 12:56:44;;;;;;;;;;;;;;;-0.06;69.61;99728.48;106189;1277;23055;-84
2022/01/23 12:59:22;;;;;;;;;;;;;;;-0.09;69.84;99730.55;106126;1277;22584;-83
2022/01/23 13:01:54;;;;;;;;;;;;;;;-0.12;69.70;99728.52;106107;1277;124389;-84
2022/01/23 13:04:21;;;;;;;;;;;;;;;-0.13;70.16;99727.67;105842;1277;23233;-84
2022/01/23 13:06:59;;;;;;;;;;;;;;;-0.16;70.16;99732.63;105891;1277;124148;-82
2022/01/23 13:15:57;;;;;;;;;;;;;;;-0.11;70.77;99729.42;106176;1277;25423;-83
2022/01/23 13:31:09;;;;;;;;;;;;;;;0.44;71.39;99738.70;105696;1277;123950;-84
2022/01/23 13:33:37;;;;;;;;;;;;;;;0.47;71.05;99733.78;106235;1277;24375;-83
2022/01/23 13:36:07;;;;;;;;;;;;;;;0.47;70.85;99738.39;106031;1277;124287;-84
2022/01/23 13:38:34;;;;;;;;;;;;;;;0.42;70.92;99734.65;106215;1277;26484;-83
2022/01/23 13:41:10;;;;;;;;;;;;;;;0.35;71.03;99739.25;106130;1277;24722;-83
2022/01/23 13:52:21;;;;;;;;;;;;;;;0.19;71.66;99738.70;106485;1277;22528;-84
2022/01/23 13:57:42;;;;;;;;;;;;;;;0.12;71.92;99745.81;106117;1277;22574;-84
2022/01/23 14:00:16;;;;;;;;;;;;;;;0.06;71.98;99747.10;106276;1277;125134;-84
2022/01/23 14:02:47;;;;;;;;;;;;;;;-0.04;72.29;99752.77;106156;1277;22534;-83
2022/01/23 14:05:15;;;;;;;;;;;;;;;-0.12;72.56;99750.25;106471;1277;24305;-83
2022/01/23 14:07:45;;;;;;;;;;;;;;;-0.21;72.97;99747.70;105976;1280;124805;-83
2022/01/23 14:10:13;;;;;;;;;;;;;;;-0.32;73.31;99741.47;106030;1277;22581;-83
2022/01/23 14:12:40;;;;;;;;;;;;;;;-0.40;73.42;99743.62;105999;1279;124423;-83
2022/01/23 14:15:13;;;;;;;;;;;;;;;-0.45;73.61;99748.66;106070;1279;22538;-83
2022/01/23 14:17:39;;;;;;;;;;;;;;;-0.49;73.82;99749.91;106078;1280;24948;-83
2022/01/23 14:20:06;;;;;;;;;;;;;;;-0.53;74.02;99756.95;105881;1280;124133;-84
2022/01/23 14:22:34;;;;;;;;;;;;;;;-0.60;73.88;99760.23;105927;1280;25571;-85
2022/01/23 14:25:06;;;;;;;;;;;;;;;-0.65;74.10;99762.67;106135;1279;124182;-84
2022/01/23 14:27:32;;;;;;;;;;;;;;;-0.71;74.32;99765.54;105986;1279;25253;-84
2022/01/23 14:30:01;;;;;;;;;;;;;;;-0.74;74.64;99767.63;105990;1279;124395;-84
2022/01/23 14:32:42;;;;;;;;;;;;;;;-0.79;74.83;99771.79;106007;1281;23079;-83
2022/01/23 14:35:11;;;;;;;;;;;;;;;-0.86;75.02;99774.56;106378;1280;25294;-84
2022/01/23 14:37:52;;;;;;;;;;;;;;;-0.91;75.23;99776.23;106037;1277;124740;-85
2022/01/23 14:40:20;;;;;;;;;;;;;;;-0.93;75.46;99780.20;106111;1277;24330;-85
2022/01/23 14:43:07;;;;;;;;;;;;;;;-0.98;75.51;99779.34;106273;1277;124217;-84
2022/01/23 14:45:36;;;;;;;;;;;;;;;-1.04;75.74;99786.63;106187;1277;22531;-83
2022/01/23 14:48:03;;;;;;;;;;;;;;;-1.10;75.84;99788.52;106340;1277;124181;-83
2022/01/23 14:50:31;;;;;;;;;;;;;;;-1.13;76.14;99792.30;107019;1277;26737;-84
2022/01/23 14:53:03;;;;;;;;;;;;;;;-1.17;76.32;99796.06;106904;1277;22567;-83
2022/01/23 14:55:29;;;;;;;;;;;;;;;-1.24;76.52;99795.90;106080;1277;124471;-84
2022/01/23 14:57:59;;;;;;;;;;;;;;;-1.29;76.86;99796.02;106097;1277;22561;-83
2022/01/23 15:00:27;;;;;;;;;;;;;;;-1.35;77.25;99797.77;106180;1277;124981;-83
2022/01/23 15:02:54;;;;;;;;;;;;;;;-1.42;77.46;99799.81;106182;1277;22614;-83
2022/01/23 15:05:20;;;;;;;;;;;;;;;-1.46;77.61;99805.05;105981;1280;22708;-84
2022/01/23 15:07:47;;;;;;;;;;;;;;;-1.53;77.72;99806.69;105729;1277;124178;-83
2022/01/23 15:10:13;;;;;;;;;;;;;;;-1.57;78.07;99811.60;105868;1277;22571;-83
2022/01/23 15:12:39;;;;;;;;;;;;;;;-1.57;78.00;99809.90;105906;1277;125737;-83
2022/01/23 15:15:06;;;;;;;;;;;;;;;-1.59;78.06;99813.58;106625;1277;24457;-83
2022/01/23 15:17:33;;;;;;;;;;;;;;;-1.61;78.02;99818.90;106276;1277;22567;-84
2022/01/23 15:20:00;;;;;;;;;;;;;;;-1.62;78.22;99829.19;106642;1277;123975;-83
2022/01/23 15:22:27;;;;;;;;;;;;;;;-1.64;78.37;99825.30;105914;1277;23490;-84
2022/01/23 15:24:54;;;;;;;;;;;;;;;-1.66;78.42;99828.30;106688;1279;124385;-83
2022/01/23 15:27:20;;;;;;;;;;;;;;;-1.68;78.41;99828.64;106046;1279;22719;-84
2022/01/23 15:29:46;;;;;;;;;;;;;;;-1.72;78.37;99831.05;106367;1279;23423;-85
2022/01/23 15:32:12;;;;;;;;;;;;;;;-1.71;78.49;99833.50;105975;1280;124877;-86
2022/01/23 15:34:39;;;;;;;;;;;;;;;-1.70;78.41;99832.90;105669;1277;25452;-85
2022/01/23 15:37:05;;;;;;;;;;;;;;;-1.67;78.51;99836.06;105597;1277;124211;-85
2022/01/23 15:39:32;;;;;;;;;;;;;;;-1.65;78.66;99833.56;106411;1277;24399;-85
2022/01/23 15:41:59;;;;;;;;;;;;;;;-1.62;78.61;99842.73;106072;1277;124438;-85
2022/01/23 15:44:25;;;;;;;;;;;;;;;-1.63;78.69;99844.77;106380;1277;24256;-84
2022/01/23 15:46:51;;;;;;;;;;;;;;;-1.62;78.48;99849.52;106179;1277;22567;-84
2022/01/23 15:49:18;;;;;;;;;;;;;;;-1.65;78.58;99858.83;106209;1277;124114;-84
2022/01/23 15:51:47;;;;;;;;;;;;;;;-1.69;78.44;99863.81;106582;1277;22568;-84
2022/01/23 15:54:14;;;;;;;;;;;;;;;-1.74;78.40;99872.59;106019;1277;124649;-84
2022/01/23 15:56:41;;;;;;;;;;;;;;;-1.79;78.48;99877.61;106655;1277;22571;-85
2022/01/23 15:59:07;;;;;;;;;;;;;;;-1.83;78.70;99876.23;107788;1277;22716;-84
2022/01/23 16:01:35;;;;;;;;;;;;;;;-1.85;78.77;99877.07;106743;1277;124538;-84
2022/01/23 16:04:01;;;;;;;;;;;;;;;-1.84;78.99;99883.59;106851;1277;24394;-84
2022/01/23 16:06:27;;;;;;;;;;;;;;;-1.84;78.76;99882.69;106901;1277;125077;-84
2022/01/23 16:08:54;;;;;;;;;;;;;;;-1.85;78.72;99885.45;106233;1277;22550;-84
2022/01/23 16:11:20;;;;;;;;;;;;;;;-1.90;78.69;99887.60;106054;1277;22538;-84
2022/01/23 16:13:46;;;;;;;;;;;;;;;-1.92;78.76;99882.80;105741;1277;124291;-83
2022/01/23 16:16:12;;;;;;;;;;;;;;;-1.96;78.93;99883.34;105744;1277;22584;-85
2022/01/23 16:18:38;;;;;;;;;;;;;;;-2.01;79.05;99884.67;105985;1277;124207;-83
2022/01/23 16:21:07;;;;;;;;;;;;;;;-2.06;79.10;99886.36;106112;1277;22529;-83
2022/01/23 16:23:33;;;;;;;;;;;;;;;-2.12;79.32;99895.66;106384;1277;25376;-83
2022/01/23 16:26:00;;;;;;;;;;;;;;;-2.15;79.31;99897.72;105788;1277;124913;-84
2022/01/23 16:28:26;;;;;;;;;;;;;;;-2.14;79.56;99901.73;106045;1280;25252;-84